<?xml version="1.0" encoding="UTF-8" standalone="no" ?>
<gpx xmlns="http://www.topografix.com/GPX/1/1" xmlns:xsi="http://www.w3.org/2001/XMLSchema-instance" xsi:schemaLocation="http://www.topografix.com/GPX/1/1 http://www.topografix.com/GPX/1/1/gpx.xsd" version="1.1" creator="VisuGPX - https://www.visugpx.com">
  <metadata>
    <name>Le Roc de Courlande à travers les prés d'estives</name>
  </metadata>
  <wpt lat="45.51025" lon="2.75682">
    <ele>1160.7</ele>
    <name><![CDATA[Stationnement au "p'tit café aux Bories]]></name>
  </wpt>
  <wpt lat="45.51074" lon="2.76422">
    <ele>1180.4</ele>
    <name><![CDATA[Poteau électrique]]></name>
    <type><![CDATA[ à gauche]]></type>
  </wpt>
  <wpt lat="45.51348" lon="2.7688">
    <ele>1185.9</ele>
    <name><![CDATA[Croisement de chemins]]></name>
    <type><![CDATA[ à droite]]></type>
  </wpt>
  <wpt lat="45.51375" lon="2.77645">
    <ele>1284.6</ele>
    <name><![CDATA[Piste forestière]]></name>
  </wpt>
  <wpt lat="45.52242" lon="2.76924">
    <ele>1335.6</ele>
    <name><![CDATA[Parking]]></name>
  </wpt>
  <wpt lat="45.52163" lon="2.77131">
    <ele>1308.5</ele>
    <name><![CDATA[Chemin qui monte vers une maison depuis la route]]></name>
  </wpt>
  <wpt lat="45.51771" lon="2.7457">
    <ele>1170.3</ele>
    <name><![CDATA[Baffaud]]></name>
    <type><![CDATA[ à gauche]]></type>
  </wpt>
  <wpt lat="45.51361" lon="2.74704">
    <ele>1089.7</ele>
    <name><![CDATA[La Vessaire]]></name>
    <type><![CDATA[ à gauche]]></type>
  </wpt>
  <wpt lat="45.51164" lon="2.74408">
    <ele>1049.6</ele>
    <name><![CDATA[Bifurcation à gauche]]></name>
  </wpt>
  <wpt lat="45.50852" lon="2.74894">
    <ele>1101.2</ele>
    <name><![CDATA[Le Mont]]></name>
    <type><![CDATA[ sentier à gauche]]></type>
  </wpt>
  <wpt lat="45.51025" lon="2.75682">
    <ele>1160.7</ele>
    <name><![CDATA[Les Bories]]></name>
  </wpt>
  <trk>
    <name><![CDATA[Le Roc de Courlande à travers les prés d'estives]]></name>
    <trkseg>
      <trkpt lat="45.51025" lon="2.75682">
        <ele>1161</ele>
        <time>2021-01-06T16:48:29+01:00</time>
      </trkpt>
      <trkpt lat="45.51025" lon="2.75741">
        <ele>1164</ele>
        <time>2021-01-06T16:48:34+01:00</time>
      </trkpt>
      <trkpt lat="45.51008" lon="2.75783">
        <ele>1167</ele>
        <time>2021-01-06T16:48:39+01:00</time>
      </trkpt>
      <trkpt lat="45.50989" lon="2.75832">
        <ele>1168</ele>
        <time>2021-01-06T16:48:44+01:00</time>
      </trkpt>
      <trkpt lat="45.50989" lon="2.75896">
        <ele>1171</ele>
        <time>2021-01-06T16:48:49+01:00</time>
      </trkpt>
      <trkpt lat="45.51001" lon="2.7598">
        <ele>1174</ele>
        <time>2021-01-06T16:48:54+01:00</time>
      </trkpt>
      <trkpt lat="45.5101" lon="2.76021">
        <ele>1175</ele>
        <time>2021-01-06T16:48:59+01:00</time>
      </trkpt>
      <trkpt lat="45.5103" lon="2.76078">
        <ele>1176</ele>
        <time>2021-01-06T16:49:04+01:00</time>
      </trkpt>
      <trkpt lat="45.51043" lon="2.76161">
        <ele>1178</ele>
        <time>2021-01-06T16:49:09+01:00</time>
      </trkpt>
      <trkpt lat="45.51062" lon="2.76265">
        <ele>1179</ele>
        <time>2021-01-06T16:49:14+01:00</time>
      </trkpt>
      <trkpt lat="45.51074" lon="2.76314">
        <ele>1179</ele>
        <time>2021-01-06T16:49:19+01:00</time>
      </trkpt>
      <trkpt lat="45.51082" lon="2.76369">
        <ele>1179</ele>
        <time>2021-01-06T16:49:24+01:00</time>
      </trkpt>
      <trkpt lat="45.51074" lon="2.76422">
        <ele>1180</ele>
        <time>2021-01-06T16:49:29+01:00</time>
      </trkpt>
      <trkpt lat="45.51092" lon="2.76421">
        <ele>1179</ele>
        <time>2021-01-06T16:49:34+01:00</time>
      </trkpt>
      <trkpt lat="45.51107" lon="2.76432">
        <ele>1178</ele>
        <time>2021-01-06T16:49:39+01:00</time>
      </trkpt>
      <trkpt lat="45.51163" lon="2.76448">
        <ele>1174</ele>
        <time>2021-01-06T16:49:44+01:00</time>
      </trkpt>
      <trkpt lat="45.51185" lon="2.76457">
        <ele>1174</ele>
        <time>2021-01-06T16:49:49+01:00</time>
      </trkpt>
      <trkpt lat="45.51199" lon="2.76459">
        <ele>1174</ele>
        <time>2021-01-06T16:49:54+01:00</time>
      </trkpt>
      <trkpt lat="45.51213" lon="2.7643">
        <ele>1171</ele>
        <time>2021-01-06T16:49:59+01:00</time>
      </trkpt>
      <trkpt lat="45.5123" lon="2.76437">
        <ele>1172</ele>
        <time>2021-01-06T16:50:04+01:00</time>
      </trkpt>
      <trkpt lat="45.51235" lon="2.76459">
        <ele>1173</ele>
        <time>2021-01-06T16:50:09+01:00</time>
      </trkpt>
      <trkpt lat="45.51261" lon="2.76476">
        <ele>1172</ele>
        <time>2021-01-06T16:50:14+01:00</time>
      </trkpt>
      <trkpt lat="45.51287" lon="2.76523">
        <ele>1171</ele>
        <time>2021-01-06T16:50:19+01:00</time>
      </trkpt>
      <trkpt lat="45.51288" lon="2.76606">
        <ele>1179</ele>
        <time>2021-01-06T16:50:24+01:00</time>
      </trkpt>
      <trkpt lat="45.51284" lon="2.76713">
        <ele>1186</ele>
        <time>2021-01-06T16:50:29+01:00</time>
      </trkpt>
      <trkpt lat="45.51303" lon="2.76776">
        <ele>1188</ele>
        <time>2021-01-06T16:50:34+01:00</time>
      </trkpt>
      <trkpt lat="45.51328" lon="2.76824">
        <ele>1189</ele>
        <time>2021-01-06T16:50:39+01:00</time>
      </trkpt>
      <trkpt lat="45.51334" lon="2.76849">
        <ele>1189</ele>
        <time>2021-01-06T16:50:44+01:00</time>
      </trkpt>
      <trkpt lat="45.51348" lon="2.7688">
        <ele>1186</ele>
        <time>2021-01-06T16:50:49+01:00</time>
      </trkpt>
      <trkpt lat="45.51323" lon="2.76969">
        <ele>1193</ele>
        <time>2021-01-06T16:50:54+01:00</time>
      </trkpt>
      <trkpt lat="45.51298" lon="2.7702">
        <ele>1197</ele>
        <time>2021-01-06T16:50:59+01:00</time>
      </trkpt>
      <trkpt lat="45.51281" lon="2.77134">
        <ele>1213</ele>
        <time>2021-01-06T16:51:04+01:00</time>
      </trkpt>
      <trkpt lat="45.51306" lon="2.77193">
        <ele>1222</ele>
        <time>2021-01-06T16:51:09+01:00</time>
      </trkpt>
      <trkpt lat="45.51308" lon="2.77275">
        <ele>1235</ele>
        <time>2021-01-06T16:51:14+01:00</time>
      </trkpt>
      <trkpt lat="45.51314" lon="2.77396">
        <ele>1251</ele>
        <time>2021-01-06T16:51:19+01:00</time>
      </trkpt>
      <trkpt lat="45.5133" lon="2.77464">
        <ele>1260</ele>
        <time>2021-01-06T16:51:24+01:00</time>
      </trkpt>
      <trkpt lat="45.51307" lon="2.77476">
        <ele>1261</ele>
        <time>2021-01-06T16:51:29+01:00</time>
      </trkpt>
      <trkpt lat="45.5133" lon="2.77566">
        <ele>1270</ele>
        <time>2021-01-06T16:51:34+01:00</time>
      </trkpt>
      <trkpt lat="45.51337" lon="2.77619">
        <ele>1276</ele>
        <time>2021-01-06T16:51:39+01:00</time>
      </trkpt>
      <trkpt lat="45.51375" lon="2.77645">
        <ele>1285</ele>
        <time>2021-01-06T16:51:44+01:00</time>
      </trkpt>
      <trkpt lat="45.51404" lon="2.77648">
        <ele>1290</ele>
        <time>2021-01-06T16:51:49+01:00</time>
      </trkpt>
      <trkpt lat="45.5141" lon="2.77668">
        <ele>1294</ele>
        <time>2021-01-06T16:51:54+01:00</time>
      </trkpt>
      <trkpt lat="45.51426" lon="2.77662">
        <ele>1296</ele>
        <time>2021-01-06T16:51:59+01:00</time>
      </trkpt>
      <trkpt lat="45.51443" lon="2.7767">
        <ele>1301</ele>
        <time>2021-01-06T16:52:04+01:00</time>
      </trkpt>
      <trkpt lat="45.51474" lon="2.77727">
        <ele>1312</ele>
        <time>2021-01-06T16:52:09+01:00</time>
      </trkpt>
      <trkpt lat="45.51517" lon="2.77754">
        <ele>1325</ele>
        <time>2021-01-06T16:52:14+01:00</time>
      </trkpt>
      <trkpt lat="45.51556" lon="2.77694">
        <ele>1329</ele>
        <time>2021-01-06T16:52:19+01:00</time>
      </trkpt>
      <trkpt lat="45.51601" lon="2.77689">
        <ele>1336</ele>
        <time>2021-01-06T16:52:24+01:00</time>
      </trkpt>
      <trkpt lat="45.51697" lon="2.77719">
        <ele>1351</ele>
        <time>2021-01-06T16:52:29+01:00</time>
      </trkpt>
      <trkpt lat="45.51864" lon="2.77717">
        <ele>1357</ele>
        <time>2021-01-06T16:52:34+01:00</time>
      </trkpt>
      <trkpt lat="45.51917" lon="2.77698">
        <ele>1354</ele>
        <time>2021-01-06T16:52:39+01:00</time>
      </trkpt>
      <trkpt lat="45.51983" lon="2.77727">
        <ele>1364</ele>
        <time>2021-01-06T16:52:44+01:00</time>
      </trkpt>
      <trkpt lat="45.52029" lon="2.7772">
        <ele>1368</ele>
        <time>2021-01-06T16:52:49+01:00</time>
      </trkpt>
      <trkpt lat="45.52089" lon="2.77644">
        <ele>1372</ele>
        <time>2021-01-06T16:52:54+01:00</time>
      </trkpt>
      <trkpt lat="45.5213" lon="2.77544">
        <ele>1369</ele>
        <time>2021-01-06T16:52:59+01:00</time>
      </trkpt>
      <trkpt lat="45.52259" lon="2.77383">
        <ele>1363</ele>
        <time>2021-01-06T16:53:04+01:00</time>
      </trkpt>
      <trkpt lat="45.52306" lon="2.77365">
        <ele>1366</ele>
        <time>2021-01-06T16:53:09+01:00</time>
      </trkpt>
      <trkpt lat="45.5228" lon="2.77316">
        <ele>1360</ele>
        <time>2021-01-06T16:53:14+01:00</time>
      </trkpt>
      <trkpt lat="45.52273" lon="2.7726">
        <ele>1355</ele>
        <time>2021-01-06T16:53:19+01:00</time>
      </trkpt>
      <trkpt lat="45.52283" lon="2.77193">
        <ele>1351</ele>
        <time>2021-01-06T16:53:24+01:00</time>
      </trkpt>
      <trkpt lat="45.52242" lon="2.76924">
        <ele>1336</ele>
        <time>2021-01-06T16:53:29+01:00</time>
      </trkpt>
      <trkpt lat="45.52339" lon="2.76947">
        <ele>1355</ele>
        <time>2021-01-06T16:53:34+01:00</time>
      </trkpt>
      <trkpt lat="45.52378" lon="2.76973">
        <ele>1363</ele>
        <time>2021-01-06T16:53:39+01:00</time>
      </trkpt>
      <trkpt lat="45.52382" lon="2.77026">
        <ele>1367</ele>
        <time>2021-01-06T16:53:44+01:00</time>
      </trkpt>
      <trkpt lat="45.52533" lon="2.77236">
        <ele>1410</ele>
        <time>2021-01-06T16:53:49+01:00</time>
      </trkpt>
      <trkpt lat="45.52615" lon="2.77213">
        <ele>1431</ele>
        <time>2021-01-06T16:53:54+01:00</time>
      </trkpt>
      <trkpt lat="45.52716" lon="2.77268">
        <ele>1454</ele>
        <time>2021-01-06T16:53:59+01:00</time>
      </trkpt>
      <trkpt lat="45.52612" lon="2.77213">
        <ele>1430</ele>
        <time>2021-01-06T16:54:04+01:00</time>
      </trkpt>
      <trkpt lat="45.52531" lon="2.77236">
        <ele>1410</ele>
        <time>2021-01-06T16:54:09+01:00</time>
      </trkpt>
      <trkpt lat="45.5238" lon="2.77026">
        <ele>1367</ele>
        <time>2021-01-06T16:54:14+01:00</time>
      </trkpt>
      <trkpt lat="45.52379" lon="2.76973">
        <ele>1364</ele>
        <time>2021-01-06T16:54:19+01:00</time>
      </trkpt>
      <trkpt lat="45.52339" lon="2.76951">
        <ele>1355</ele>
        <time>2021-01-06T16:54:24+01:00</time>
      </trkpt>
      <trkpt lat="45.52241" lon="2.76924">
        <ele>1335</ele>
        <time>2021-01-06T16:54:29+01:00</time>
      </trkpt>
      <trkpt lat="45.52215" lon="2.77071">
        <ele>1326</ele>
        <time>2021-01-06T16:54:34+01:00</time>
      </trkpt>
      <trkpt lat="45.52151" lon="2.76994">
        <ele>1314</ele>
        <time>2021-01-06T16:54:39+01:00</time>
      </trkpt>
      <trkpt lat="45.52179" lon="2.77093">
        <ele>1314</ele>
        <time>2021-01-06T16:54:44+01:00</time>
      </trkpt>
      <trkpt lat="45.52163" lon="2.77131">
        <ele>1308</ele>
        <time>2021-01-06T16:54:49+01:00</time>
      </trkpt>
      <trkpt lat="45.52146" lon="2.77133">
        <ele>1305</ele>
        <time>2021-01-06T16:54:54+01:00</time>
      </trkpt>
      <trkpt lat="45.5211" lon="2.76992">
        <ele>1306</ele>
        <time>2021-01-06T16:54:59+01:00</time>
      </trkpt>
      <trkpt lat="45.52081" lon="2.76936">
        <ele>1303</ele>
        <time>2021-01-06T16:55:04+01:00</time>
      </trkpt>
      <trkpt lat="45.52089" lon="2.76908">
        <ele>1306</ele>
        <time>2021-01-06T16:55:09+01:00</time>
      </trkpt>
      <trkpt lat="45.52164" lon="2.76779">
        <ele>1312</ele>
        <time>2021-01-06T16:55:14+01:00</time>
      </trkpt>
      <trkpt lat="45.52181" lon="2.76754">
        <ele>1312</ele>
        <time>2021-01-06T16:55:19+01:00</time>
      </trkpt>
      <trkpt lat="45.52331" lon="2.76623">
        <ele>1318</ele>
        <time>2021-01-06T16:55:24+01:00</time>
      </trkpt>
      <trkpt lat="45.52347" lon="2.76586">
        <ele>1318</ele>
        <time>2021-01-06T16:55:29+01:00</time>
      </trkpt>
      <trkpt lat="45.52366" lon="2.76537">
        <ele>1316</ele>
        <time>2021-01-06T16:55:34+01:00</time>
      </trkpt>
      <trkpt lat="45.52367" lon="2.76475">
        <ele>1311</ele>
        <time>2021-01-06T16:55:39+01:00</time>
      </trkpt>
      <trkpt lat="45.52382" lon="2.76404">
        <ele>1304</ele>
        <time>2021-01-06T16:55:44+01:00</time>
      </trkpt>
      <trkpt lat="45.52391" lon="2.76339">
        <ele>1296</ele>
        <time>2021-01-06T16:55:49+01:00</time>
      </trkpt>
      <trkpt lat="45.52267" lon="2.76097">
        <ele>1274</ele>
        <time>2021-01-06T16:55:54+01:00</time>
      </trkpt>
      <trkpt lat="45.52253" lon="2.76051">
        <ele>1271</ele>
        <time>2021-01-06T16:55:59+01:00</time>
      </trkpt>
      <trkpt lat="45.52245" lon="2.76">
        <ele>1268</ele>
        <time>2021-01-06T16:56:04+01:00</time>
      </trkpt>
      <trkpt lat="45.52241" lon="2.75959">
        <ele>1266</ele>
        <time>2021-01-06T16:56:09+01:00</time>
      </trkpt>
      <trkpt lat="45.52218" lon="2.75891">
        <ele>1266</ele>
        <time>2021-01-06T16:56:14+01:00</time>
      </trkpt>
      <trkpt lat="45.52221" lon="2.75785">
        <ele>1265</ele>
        <time>2021-01-06T16:56:19+01:00</time>
      </trkpt>
      <trkpt lat="45.52192" lon="2.75608">
        <ele>1263</ele>
        <time>2021-01-06T16:56:24+01:00</time>
      </trkpt>
      <trkpt lat="45.52129" lon="2.75542">
        <ele>1259</ele>
        <time>2021-01-06T16:56:29+01:00</time>
      </trkpt>
      <trkpt lat="45.52067" lon="2.75455">
        <ele>1253</ele>
        <time>2021-01-06T16:56:34+01:00</time>
      </trkpt>
      <trkpt lat="45.51974" lon="2.75149">
        <ele>1238</ele>
        <time>2021-01-06T16:56:39+01:00</time>
      </trkpt>
      <trkpt lat="45.51963" lon="2.75078">
        <ele>1232</ele>
        <time>2021-01-06T16:56:44+01:00</time>
      </trkpt>
      <trkpt lat="45.51925" lon="2.74975">
        <ele>1218</ele>
        <time>2021-01-06T16:56:49+01:00</time>
      </trkpt>
      <trkpt lat="45.51915" lon="2.74936">
        <ele>1214</ele>
        <time>2021-01-06T16:56:54+01:00</time>
      </trkpt>
      <trkpt lat="45.51867" lon="2.74887">
        <ele>1203</ele>
        <time>2021-01-06T16:56:59+01:00</time>
      </trkpt>
      <trkpt lat="45.51843" lon="2.74832">
        <ele>1198</ele>
        <time>2021-01-06T16:57:04+01:00</time>
      </trkpt>
      <trkpt lat="45.51816" lon="2.7473">
        <ele>1190</ele>
        <time>2021-01-06T16:57:09+01:00</time>
      </trkpt>
      <trkpt lat="45.51804" lon="2.74757">
        <ele>1187</ele>
        <time>2021-01-06T16:57:14+01:00</time>
      </trkpt>
      <trkpt lat="45.51786" lon="2.74856">
        <ele>1181</ele>
        <time>2021-01-06T16:57:19+01:00</time>
      </trkpt>
      <trkpt lat="45.51772" lon="2.74801">
        <ele>1176</ele>
        <time>2021-01-06T16:57:24+01:00</time>
      </trkpt>
      <trkpt lat="45.51773" lon="2.74737">
        <ele>1176</ele>
        <time>2021-01-06T16:57:29+01:00</time>
      </trkpt>
      <trkpt lat="45.51758" lon="2.74706">
        <ele>1171</ele>
        <time>2021-01-06T16:57:34+01:00</time>
      </trkpt>
      <trkpt lat="45.51771" lon="2.7457">
        <ele>1170</ele>
        <time>2021-01-06T16:57:39+01:00</time>
      </trkpt>
      <trkpt lat="45.51711" lon="2.74667">
        <ele>1157</ele>
        <time>2021-01-06T16:57:44+01:00</time>
      </trkpt>
      <trkpt lat="45.51653" lon="2.7487">
        <ele>1141</ele>
        <time>2021-01-06T16:57:49+01:00</time>
      </trkpt>
      <trkpt lat="45.51639" lon="2.74864">
        <ele>1138</ele>
        <time>2021-01-06T16:57:54+01:00</time>
      </trkpt>
      <trkpt lat="45.51619" lon="2.74841">
        <ele>1133</ele>
        <time>2021-01-06T16:57:59+01:00</time>
      </trkpt>
      <trkpt lat="45.51559" lon="2.74743">
        <ele>1120</ele>
        <time>2021-01-06T16:58:04+01:00</time>
      </trkpt>
      <trkpt lat="45.51531" lon="2.74745">
        <ele>1116</ele>
        <time>2021-01-06T16:58:09+01:00</time>
      </trkpt>
      <trkpt lat="45.51507" lon="2.74801">
        <ele>1113</ele>
        <time>2021-01-06T16:58:14+01:00</time>
      </trkpt>
      <trkpt lat="45.51443" lon="2.74734">
        <ele>1102</ele>
        <time>2021-01-06T16:58:19+01:00</time>
      </trkpt>
      <trkpt lat="45.51361" lon="2.74704">
        <ele>1090</ele>
        <time>2021-01-06T16:58:24+01:00</time>
      </trkpt>
      <trkpt lat="45.51343" lon="2.74738">
        <ele>1088</ele>
        <time>2021-01-06T16:58:29+01:00</time>
      </trkpt>
      <trkpt lat="45.51328" lon="2.74791">
        <ele>1088</ele>
        <time>2021-01-06T16:58:34+01:00</time>
      </trkpt>
      <trkpt lat="45.51293" lon="2.74761">
        <ele>1085</ele>
        <time>2021-01-06T16:58:39+01:00</time>
      </trkpt>
      <trkpt lat="45.5125" lon="2.74748">
        <ele>1081</ele>
        <time>2021-01-06T16:58:44+01:00</time>
      </trkpt>
      <trkpt lat="45.51225" lon="2.74722">
        <ele>1078</ele>
        <time>2021-01-06T16:58:49+01:00</time>
      </trkpt>
      <trkpt lat="45.51164" lon="2.74408">
        <ele>1050</ele>
        <time>2021-01-06T16:58:54+01:00</time>
      </trkpt>
      <trkpt lat="45.51058" lon="2.74508">
        <ele>1052</ele>
        <time>2021-01-06T16:58:59+01:00</time>
      </trkpt>
      <trkpt lat="45.50988" lon="2.74585">
        <ele>1056</ele>
        <time>2021-01-06T16:59:04+01:00</time>
      </trkpt>
      <trkpt lat="45.50976" lon="2.74684">
        <ele>1063</ele>
        <time>2021-01-06T16:59:09+01:00</time>
      </trkpt>
      <trkpt lat="45.50946" lon="2.7474">
        <ele>1071</ele>
        <time>2021-01-06T16:59:14+01:00</time>
      </trkpt>
      <trkpt lat="45.50916" lon="2.74753">
        <ele>1076</ele>
        <time>2021-01-06T16:59:19+01:00</time>
      </trkpt>
      <trkpt lat="45.50865" lon="2.74658">
        <ele>1078</ele>
        <time>2021-01-06T16:59:24+01:00</time>
      </trkpt>
      <trkpt lat="45.50846" lon="2.74627">
        <ele>1081</ele>
        <time>2021-01-06T16:59:29+01:00</time>
      </trkpt>
      <trkpt lat="45.50802" lon="2.74545">
        <ele>1087</ele>
        <time>2021-01-06T16:59:34+01:00</time>
      </trkpt>
      <trkpt lat="45.50777" lon="2.74539">
        <ele>1091</ele>
        <time>2021-01-06T16:59:39+01:00</time>
      </trkpt>
      <trkpt lat="45.50764" lon="2.74649">
        <ele>1094</ele>
        <time>2021-01-06T16:59:44+01:00</time>
      </trkpt>
      <trkpt lat="45.5076" lon="2.74764">
        <ele>1098</ele>
        <time>2021-01-06T16:59:49+01:00</time>
      </trkpt>
      <trkpt lat="45.50852" lon="2.74894">
        <ele>1101</ele>
        <time>2021-01-06T16:59:54+01:00</time>
      </trkpt>
      <trkpt lat="45.5088" lon="2.74924">
        <ele>1104</ele>
        <time>2021-01-06T16:59:59+01:00</time>
      </trkpt>
      <trkpt lat="45.50923" lon="2.74951">
        <ele>1107</ele>
        <time>2021-01-06T17:00:04+01:00</time>
      </trkpt>
      <trkpt lat="45.50958" lon="2.75032">
        <ele>1112</ele>
        <time>2021-01-06T17:00:09+01:00</time>
      </trkpt>
      <trkpt lat="45.50975" lon="2.7509">
        <ele>1119</ele>
        <time>2021-01-06T17:00:14+01:00</time>
      </trkpt>
      <trkpt lat="45.51001" lon="2.7513">
        <ele>1124</ele>
        <time>2021-01-06T17:00:19+01:00</time>
      </trkpt>
      <trkpt lat="45.51007" lon="2.75198">
        <ele>1131</ele>
        <time>2021-01-06T17:00:24+01:00</time>
      </trkpt>
      <trkpt lat="45.50997" lon="2.75278">
        <ele>1139</ele>
        <time>2021-01-06T17:00:29+01:00</time>
      </trkpt>
      <trkpt lat="45.51012" lon="2.75374">
        <ele>1142</ele>
        <time>2021-01-06T17:00:34+01:00</time>
      </trkpt>
      <trkpt lat="45.51027" lon="2.75489">
        <ele>1148</ele>
        <time>2021-01-06T17:00:39+01:00</time>
      </trkpt>
      <trkpt lat="45.51021" lon="2.7554">
        <ele>1152</ele>
        <time>2021-01-06T17:00:44+01:00</time>
      </trkpt>
      <trkpt lat="45.51037" lon="2.75616">
        <ele>1156</ele>
        <time>2021-01-06T17:00:49+01:00</time>
      </trkpt>
      <trkpt lat="45.51046" lon="2.75678">
        <ele>1159</ele>
        <time>2021-01-06T17:00:54+01:00</time>
      </trkpt>
      <trkpt lat="45.51036" lon="2.75681">
        <ele>1160</ele>
        <time>2021-01-06T17:00:59+01:00</time>
      </trkpt>
      <trkpt lat="45.51025" lon="2.75682">
        <ele>1161</ele>
        <time>2021-01-06T17:01:04+01:00</time>
      </trkpt>
    </trkseg>
  </trk>
</gpx>